sensor_id;sensor_type;location;lat;lon;timestamp;P1;durP1;ratioP1;P2;durP2;ratioP2
43650;SDS011;29247;50.944;5.382;2022-08-01T00:01:58;2.38;;;1.23;;
43650;SDS011;29247;50.944;5.382;2022-08-01T00:04:25;3.95;;;1.00;;
43650;SDS011;29247;50.944;5.382;2022-08-01T00:06:51;2.45;;;1.05;;
43650;SDS011;29247;50.944;5.382;2022-08-01T00:09:17;3.13;;;1.15;;
43650;SDS011;29247;50.944;5.382;2022-08-01T00:11:42;1.50;;;0.90;;
43650;SDS011;29247;50.944;5.382;2022-08-01T00:14:10;2.05;;;1.20;;
43650;SDS011;29247;50.944;5.382;2022-08-01T00:16:36;1.90;;;1.20;;
43650;SDS011;29247;50.944;5.382;2022-08-01T00:19:02;1.10;;;0.90;;
43650;SDS011;29247;50.944;5.382;2022-08-01T00:21:28;2.70;;;1.05;;
43650;SDS011;29247;50.944;5.382;2022-08-01T00:23:54;2.30;;;1.15;;
43650;SDS011;29247;50.944;5.382;2022-08-01T00:26:19;2.85;;;1.00;;
43650;SDS011;29247;50.944;5.382;2022-08-01T00:28:45;1.77;;;1.25;;
43650;SDS011;29247;50.944;5.382;2022-08-01T00:31:13;2.33;;;1.17;;
43650;SDS011;29247;50.944;5.382;2022-08-01T00:33:39;0.80;;;0.80;;
43650;SDS011;29247;50.944;5.382;2022-08-01T00:36:09;3.08;;;1.10;;
43650;SDS011;29247;50.944;5.382;2022-08-01T00:38:37;1.88;;;1.05;;
43650;SDS011;29247;50.944;5.382;2022-08-01T00:41:03;2.03;;;0.90;;
43650;SDS011;29247;50.944;5.382;2022-08-01T00:43:28;1.48;;;1.00;;
43650;SDS011;29247;50.944;5.382;2022-08-01T00:45:59;3.72;;;1.38;;
43650;SDS011;29247;50.944;5.382;2022-08-01T00:48:25;1.33;;;1.02;;
43650;SDS011;29247;50.944;5.382;2022-08-01T00:50:50;1.70;;;1.50;;
43650;SDS011;29247;50.944;5.382;2022-08-01T00:53:16;2.03;;;0.90;;
43650;SDS011;29247;50.944;5.382;2022-08-01T00:55:42;1.42;;;1.10;;
43650;SDS011;29247;50.944;5.382;2022-08-01T00:58:10;1.40;;;1.00;;
43650;SDS011;29247;50.944;5.382;2022-08-01T01:00:39;1.17;;;1.00;;
43650;SDS011;29247;50.944;5.382;2022-08-01T01:03:06;1.77;;;1.00;;
43650;SDS011;29247;50.944;5.382;2022-08-01T01:05:40;1.38;;;1.00;;
43650;SDS011;29247;50.944;5.382;2022-08-01T01:08:30;2.25;;;1.00;;
43650;SDS011;29247;50.944;5.382;2022-08-01T01:11:10;1.23;;;1.00;;
43650;SDS011;29247;50.944;5.382;2022-08-01T01:13:52;4.53;;;1.00;;
43650;SDS011;29247;50.944;5.382;2022-08-01T01:16:21;1.75;;;1.00;;
43650;SDS011;29247;50.944;5.382;2022-08-01T01:18:51;2.13;;;1.00;;
43650;SDS011;29247;50.944;5.382;2022-08-01T01:29:51;1.55;;;0.90;;
43650;SDS011;29247;50.944;5.382;2022-08-01T01:34:58;3.10;;;0.93;;
43650;SDS011;29247;50.944;5.382;2022-08-01T01:37:27;2.40;;;1.13;;
43650;SDS011;29247;50.944;5.382;2022-08-01T01:39:55;1.55;;;0.90;;
43650;SDS011;29247;50.944;5.382;2022-08-01T01:42:23;5.22;;;1.10;;
43650;SDS011;29247;50.944;5.382;2022-08-01T01:47:19;4.05;;;1.17;;
43650;SDS011;29247;50.944;5.382;2022-08-01T01:49:46;5.43;;;1.23;;
43650;SDS011;29247;50.944;5.382;2022-08-01T01:52:14;1.10;;;0.85;;
43650;SDS011;29247;50.944;5.382;2022-08-01T01:54:49;1.13;;;1.02;;
43650;SDS011;29247;50.944;5.382;2022-08-01T01:57:15;1.05;;;0.90;;
43650;SDS011;29247;50.944;5.382;2022-08-01T01:59:46;1.83;;;1.10;;
43650;SDS011;29247;50.944;5.382;2022-08-01T02:02:13;1.97;;;1.47;;
43650;SDS011;29247;50.944;5.382;2022-08-01T02:04:41;3.08;;;0.98;;
43650;SDS011;29247;50.944;5.382;2022-08-01T02:07:10;1.50;;;1.17;;
43650;SDS011;29247;50.944;5.382;2022-08-01T02:09:38;3.67;;;1.42;;
43650;SDS011;29247;50.944;5.382;2022-08-01T02:12:07;4.03;;;1.33;;
43650;SDS011;29247;50.944;5.382;2022-08-01T02:14:38;2.75;;;1.60;;
43650;SDS011;29247;50.944;5.382;2022-08-01T02:17:06;2.35;;;1.40;;
43650;SDS011;29247;50.944;5.382;2022-08-01T02:19:35;2.28;;;1.55;;
43650;SDS011;29247;50.944;5.382;2022-08-01T02:22:04;2.88;;;1.20;;
43650;SDS011;29247;50.944;5.382;2022-08-01T02:27:24;1.80;;;1.40;;
43650;SDS011;29247;50.944;5.382;2022-08-01T02:29:56;2.20;;;1.10;;
43650;SDS011;29247;50.944;5.382;2022-08-01T02:32:46;2.50;;;1.60;;
43650;SDS011;29247;50.944;5.382;2022-08-01T02:35:19;2.03;;;1.27;;
43650;SDS011;29247;50.944;5.382;2022-08-01T02:37:50;2.80;;;1.88;;
43650;SDS011;29247;50.944;5.382;2022-08-01T02:40:20;4.50;;;1.98;;
43650;SDS011;29247;50.944;5.382;2022-08-01T02:42:50;2.35;;;2.05;;
43650;SDS011;29247;50.944;5.382;2022-08-01T02:45:20;3.03;;;1.35;;
43650;SDS011;29247;50.944;5.382;2022-08-01T02:47:51;2.28;;;1.48;;
43650;SDS011;29247;50.944;5.382;2022-08-01T02:50:23;2.63;;;1.57;;
43650;SDS011;29247;50.944;5.382;2022-08-01T02:52:53;1.88;;;1.42;;
43650;SDS011;29247;50.944;5.382;2022-08-01T02:55:20;1.87;;;1.40;;
43650;SDS011;29247;50.944;5.382;2022-08-01T02:57:50;1.80;;;1.38;;
43650;SDS011;29247;50.944;5.382;2022-08-01T03:00:18;2.60;;;1.40;;
43650;SDS011;29247;50.944;5.382;2022-08-01T03:02:44;4.35;;;1.48;;
43650;SDS011;29247;50.944;5.382;2022-08-01T03:05:15;2.63;;;1.75;;
43650;SDS011;29247;50.944;5.382;2022-08-01T03:07:45;1.80;;;1.55;;
43650;SDS011;29247;50.944;5.382;2022-08-01T03:10:14;3.75;;;1.73;;
43650;SDS011;29247;50.944;5.382;2022-08-01T03:12:44;3.15;;;1.67;;
43650;SDS011;29247;50.944;5.382;2022-08-01T03:15:11;3.38;;;1.85;;
43650;SDS011;29247;50.944;5.382;2022-08-01T03:17:39;4.35;;;2.08;;
43650;SDS011;29247;50.944;5.382;2022-08-01T03:20:11;4.38;;;1.98;;
43650;SDS011;29247;50.944;5.382;2022-08-01T03:22:40;7.55;;;2.10;;
43650;SDS011;29247;50.944;5.382;2022-08-01T03:25:08;4.70;;;2.17;;
43650;SDS011;29247;50.944;5.382;2022-08-01T03:27:36;4.65;;;1.70;;
43650;SDS011;29247;50.944;5.382;2022-08-01T03:30:04;6.65;;;2.28;;
43650;SDS011;29247;50.944;5.382;2022-08-01T03:32:31;5.68;;;2.17;;
43650;SDS011;29247;50.944;5.382;2022-08-01T03:34:56;4.15;;;2.42;;
43650;SDS011;29247;50.944;5.382;2022-08-01T03:37:29;4.18;;;2.13;;
43650;SDS011;29247;50.944;5.382;2022-08-01T03:40:05;3.97;;;2.20;;
43650;SDS011;29247;50.944;5.382;2022-08-01T03:42:48;3.70;;;2.33;;
43650;SDS011;29247;50.944;5.382;2022-08-01T03:45:20;6.57;;;3.53;;
43650;SDS011;29247;50.944;5.382;2022-08-01T03:47:56;4.68;;;2.70;;
43650;SDS011;29247;50.944;5.382;2022-08-01T03:50:25;5.07;;;2.60;;
43650;SDS011;29247;50.944;5.382;2022-08-01T03:52:52;4.90;;;2.70;;
43650;SDS011;29247;50.944;5.382;2022-08-01T03:55:22;3.95;;;2.30;;
43650;SDS011;29247;50.944;5.382;2022-08-01T03:57:53;5.10;;;3.10;;
43650;SDS011;29247;50.944;5.382;2022-08-01T04:00:22;3.70;;;2.35;;
43650;SDS011;29247;50.944;5.382;2022-08-01T04:02:51;4.65;;;2.58;;
43650;SDS011;29247;50.944;5.382;2022-08-01T04:05:20;7.03;;;3.85;;
43650;SDS011;29247;50.944;5.382;2022-08-01T04:07:47;5.57;;;2.70;;
43650;SDS011;29247;50.944;5.382;2022-08-01T04:10:20;4.82;;;2.70;;
43650;SDS011;29247;50.944;5.382;2022-08-01T04:12:49;8.20;;;2.90;;
43650;SDS011;29247;50.944;5.382;2022-08-01T04:15:14;4.32;;;2.97;;
43650;SDS011;29247;50.944;5.382;2022-08-01T04:17:41;7.03;;;3.22;;
43650;SDS011;29247;50.944;5.382;2022-08-01T04:20:07;7.07;;;3.30;;
43650;SDS011;29247;50.944;5.382;2022-08-01T04:22:34;4.88;;;3.03;;
43650;SDS011;29247;50.944;5.382;2022-08-01T04:25:01;7.10;;;3.00;;
43650;SDS011;29247;50.944;5.382;2022-08-01T04:27:37;8.32;;;3.05;;
43650;SDS011;29247;50.944;5.382;2022-08-01T04:30:05;6.95;;;3.30;;
43650;SDS011;29247;50.944;5.382;2022-08-01T04:32:33;6.22;;;3.53;;
43650;SDS011;29247;50.944;5.382;2022-08-01T04:35:05;10.75;;;3.58;;
43650;SDS011;29247;50.944;5.382;2022-08-01T04:37:36;8.15;;;3.33;;
43650;SDS011;29247;50.944;5.382;2022-08-01T04:40:06;5.15;;;3.13;;
43650;SDS011;29247;50.944;5.382;2022-08-01T04:42:33;9.23;;;3.28;;
43650;SDS011;29247;50.944;5.382;2022-08-01T04:44:59;4.95;;;3.20;;
43650;SDS011;29247;50.944;5.382;2022-08-01T04:47:27;7.88;;;2.97;;
43650;SDS011;29247;50.944;5.382;2022-08-01T04:49:55;4.97;;;3.80;;
43650;SDS011;29247;50.944;5.382;2022-08-01T04:52:31;7.00;;;3.67;;
43650;SDS011;29247;50.944;5.382;2022-08-01T04:55:04;6.55;;;4.00;;
43650;SDS011;29247;50.944;5.382;2022-08-01T04:57:34;6.30;;;3.50;;
43650;SDS011;29247;50.944;5.382;2022-08-01T05:00:01;7.05;;;3.83;;
43650;SDS011;29247;50.944;5.382;2022-08-01T05:02:31;5.82;;;3.30;;
43650;SDS011;29247;50.944;5.382;2022-08-01T05:04:57;7.80;;;3.58;;
43650;SDS011;29247;50.944;5.382;2022-08-01T05:07:22;6.28;;;3.28;;
43650;SDS011;29247;50.944;5.382;2022-08-01T05:09:51;6.40;;;3.58;;
43650;SDS011;29247;50.944;5.382;2022-08-01T05:12:17;6.75;;;3.67;;
43650;SDS011;29247;50.944;5.382;2022-08-01T05:14:45;6.97;;;4.00;;
43650;SDS011;29247;50.944;5.382;2022-08-01T05:17:11;6.03;;;4.00;;
43650;SDS011;29247;50.944;5.382;2022-08-01T05:19:42;8.43;;;4.80;;
43650;SDS011;29247;50.944;5.382;2022-08-01T05:22:08;11.60;;;5.10;;
43650;SDS011;29247;50.944;5.382;2022-08-01T05:24:35;8.70;;;4.65;;
43650;SDS011;29247;50.944;5.382;2022-08-01T05:27:04;10.18;;;5.10;;
43650;SDS011;29247;50.944;5.382;2022-08-01T05:29:32;7.40;;;5.45;;
43650;SDS011;29247;50.944;5.382;2022-08-01T05:31:59;9.27;;;5.35;;
43650;SDS011;29247;50.944;5.382;2022-08-01T05:34:25;10.15;;;6.20;;
43650;SDS011;29247;50.944;5.382;2022-08-01T05:36:53;11.60;;;6.45;;
43650;SDS011;29247;50.944;5.382;2022-08-01T05:39:21;11.02;;;5.85;;
43650;SDS011;29247;50.944;5.382;2022-08-01T05:41:49;9.23;;;5.90;;
43650;SDS011;29247;50.944;5.382;2022-08-01T05:44:15;11.35;;;6.82;;
43650;SDS011;29247;50.944;5.382;2022-08-01T05:46:41;14.57;;;7.93;;
43650;SDS011;29247;50.944;5.382;2022-08-01T05:49:07;11.25;;;6.70;;
43650;SDS011;29247;50.944;5.382;2022-08-01T05:51:33;10.45;;;6.95;;
43650;SDS011;29247;50.944;5.382;2022-08-01T05:53:59;12.70;;;7.00;;
43650;SDS011;29247;50.944;5.382;2022-08-01T05:56:25;12.50;;;7.22;;
43650;SDS011;29247;50.944;5.382;2022-08-01T05:58:53;15.05;;;7.18;;
43650;SDS011;29247;50.944;5.382;2022-08-01T06:01:19;10.93;;;7.45;;
43650;SDS011;29247;50.944;5.382;2022-08-01T06:03:48;11.38;;;6.82;;
43650;SDS011;29247;50.944;5.382;2022-08-01T06:06:17;10.60;;;6.88;;
43650;SDS011;29247;50.944;5.382;2022-08-01T06:08:46;11.13;;;7.22;;
43650;SDS011;29247;50.944;5.382;2022-08-01T06:11:11;9.80;;;7.50;;
43650;SDS011;29247;50.944;5.382;2022-08-01T06:13:40;12.60;;;7.82;;
43650;SDS011;29247;50.944;5.382;2022-08-01T06:16:06;14.38;;;7.78;;
43650;SDS011;29247;50.944;5.382;2022-08-01T06:18:31;10.45;;;6.65;;
43650;SDS011;29247;50.944;5.382;2022-08-01T06:20:59;10.95;;;6.65;;
43650;SDS011;29247;50.944;5.382;2022-08-01T06:23:25;11.02;;;6.60;;
43650;SDS011;29247;50.944;5.382;2022-08-01T06:25:52;11.88;;;6.75;;
43650;SDS011;29247;50.944;5.382;2022-08-01T06:28:19;11.68;;;7.72;;
43650;SDS011;29247;50.944;5.382;2022-08-01T06:30:47;10.05;;;6.78;;
43650;SDS011;29247;50.944;5.382;2022-08-01T06:33:13;9.55;;;6.45;;
43650;SDS011;29247;50.944;5.382;2022-08-01T06:35:39;10.02;;;6.55;;
43650;SDS011;29247;50.944;5.382;2022-08-01T06:38:04;11.35;;;6.13;;
43650;SDS011;29247;50.944;5.382;2022-08-01T06:40:30;11.88;;;5.97;;
43650;SDS011;29247;50.944;5.382;2022-08-01T06:42:56;9.32;;;5.32;;
43650;SDS011;29247;50.944;5.382;2022-08-01T06:45:24;12.23;;;5.38;;
43650;SDS011;29247;50.944;5.382;2022-08-01T06:47:54;7.72;;;5.05;;
43650;SDS011;29247;50.944;5.382;2022-08-01T06:50:19;11.20;;;6.18;;
43650;SDS011;29247;50.944;5.382;2022-08-01T06:52:45;11.60;;;5.78;;
43650;SDS011;29247;50.944;5.382;2022-08-01T06:55:13;8.27;;;5.72;;
43650;SDS011;29247;50.944;5.382;2022-08-01T06:57:48;8.98;;;4.55;;
43650;SDS011;29247;50.944;5.382;2022-08-01T07:00:15;7.95;;;5.60;;
43650;SDS011;29247;50.944;5.382;2022-08-01T07:02:47;10.95;;;5.68;;
43650;SDS011;29247;50.944;5.382;2022-08-01T07:05:14;7.57;;;5.05;;
43650;SDS011;29247;50.944;5.382;2022-08-01T07:07:39;8.40;;;4.70;;
43650;SDS011;29247;50.944;5.382;2022-08-01T07:10:05;6.90;;;4.93;;
43650;SDS011;29247;50.944;5.382;2022-08-01T07:12:33;10.15;;;4.80;;
43650;SDS011;29247;50.944;5.382;2022-08-01T07:15:02;7.30;;;4.97;;
43650;SDS011;29247;50.944;5.382;2022-08-01T07:17:29;7.07;;;4.60;;
43650;SDS011;29247;50.944;5.382;2022-08-01T07:19:55;6.85;;;4.80;;
43650;SDS011;29247;50.944;5.382;2022-08-01T07:22:21;12.38;;;6.40;;
43650;SDS011;29247;50.944;5.382;2022-08-01T07:24:51;6.88;;;3.90;;
43650;SDS011;29247;50.944;5.382;2022-08-01T07:27:17;11.57;;;5.90;;
43650;SDS011;29247;50.944;5.382;2022-08-01T07:29:44;7.47;;;4.25;;
43650;SDS011;29247;50.944;5.382;2022-08-01T07:32:10;8.38;;;4.50;;
43650;SDS011;29247;50.944;5.382;2022-08-01T07:34:35;10.57;;;5.30;;
43650;SDS011;29247;50.944;5.382;2022-08-01T07:37:01;6.57;;;5.07;;
43650;SDS011;29247;50.944;5.382;2022-08-01T07:39:27;7.30;;;5.05;;
43650;SDS011;29247;50.944;5.382;2022-08-01T07:41:55;9.13;;;5.65;;
43650;SDS011;29247;50.944;5.382;2022-08-01T07:44:22;10.02;;;5.97;;
43650;SDS011;29247;50.944;5.382;2022-08-01T07:46:48;12.25;;;6.50;;
43650;SDS011;29247;50.944;5.382;2022-08-01T07:49:14;11.32;;;6.38;;
43650;SDS011;29247;50.944;5.382;2022-08-01T07:51:41;10.07;;;5.72;;
43650;SDS011;29247;50.944;5.382;2022-08-01T07:54:09;8.77;;;5.35;;
43650;SDS011;29247;50.944;5.382;2022-08-01T07:56:38;8.02;;;5.45;;
43650;SDS011;29247;50.944;5.382;2022-08-01T07:59:04;5.70;;;4.50;;
43650;SDS011;29247;50.944;5.382;2022-08-01T08:01:32;7.38;;;4.65;;
43650;SDS011;29247;50.944;5.382;2022-08-01T08:04:00;6.57;;;4.97;;
43650;SDS011;29247;50.944;5.382;2022-08-01T08:06:26;5.78;;;4.93;;
43650;SDS011;29247;50.944;5.382;2022-08-01T08:08:51;7.85;;;4.20;;
43650;SDS011;29247;50.944;5.382;2022-08-01T08:11:20;5.57;;;3.72;;
43650;SDS011;29247;50.944;5.382;2022-08-01T08:13:46;6.07;;;3.63;;
43650;SDS011;29247;50.944;5.382;2022-08-01T08:16:12;7.28;;;4.22;;
43650;SDS011;29247;50.944;5.382;2022-08-01T08:18:37;9.80;;;4.72;;
43650;SDS011;29247;50.944;5.382;2022-08-01T08:21:05;6.50;;;3.17;;
43650;SDS011;29247;50.944;5.382;2022-08-01T08:23:33;5.22;;;3.35;;
43650;SDS011;29247;50.944;5.382;2022-08-01T08:26:17;4.57;;;2.60;;
43650;SDS011;29247;50.944;5.382;2022-08-01T08:28:45;4.43;;;2.80;;
43650;SDS011;29247;50.944;5.382;2022-08-01T08:31:11;4.30;;;3.25;;
43650;SDS011;29247;50.944;5.382;2022-08-01T08:33:37;3.50;;;3.15;;
43650;SDS011;29247;50.944;5.382;2022-08-01T08:36:07;3.83;;;3.35;;
43650;SDS011;29247;50.944;5.382;2022-08-01T08:38:35;3.78;;;3.13;;
43650;SDS011;29247;50.944;5.382;2022-08-01T08:41:01;3.92;;;3.10;;
43650;SDS011;29247;50.944;5.382;2022-08-01T08:43:27;5.43;;;3.00;;
43650;SDS011;29247;50.944;5.382;2022-08-01T08:45:53;4.55;;;3.30;;
43650;SDS011;29247;50.944;5.382;2022-08-01T08:48:20;4.35;;;3.15;;
43650;SDS011;29247;50.944;5.382;2022-08-01T08:50:48;4.35;;;3.78;;
43650;SDS011;29247;50.944;5.382;2022-08-01T08:53:16;3.90;;;3.15;;
43650;SDS011;29247;50.944;5.382;2022-08-01T08:55:45;3.20;;;2.17;;
43650;SDS011;29247;50.944;5.382;2022-08-01T08:58:12;3.90;;;2.95;;
43650;SDS011;29247;50.944;5.382;2022-08-01T09:00:41;2.72;;;2.30;;
43650;SDS011;29247;50.944;5.382;2022-08-01T09:03:07;5.05;;;2.42;;
43650;SDS011;29247;50.944;5.382;2022-08-01T09:05:35;4.47;;;2.70;;
43650;SDS011;29247;50.944;5.382;2022-08-01T09:08:03;4.20;;;2.20;;
43650;SDS011;29247;50.944;5.382;2022-08-01T09:10:32;3.17;;;2.60;;
43650;SDS011;29247;50.944;5.382;2022-08-01T09:13:05;7.72;;;3.65;;
43650;SDS011;29247;50.944;5.382;2022-08-01T09:15:44;7.15;;;4.32;;
43650;SDS011;29247;50.944;5.382;2022-08-01T09:21:10;6.13;;;4.10;;
43650;SDS011;29247;50.944;5.382;2022-08-01T09:26:18;4.32;;;3.92;;
43650;SDS011;29247;50.944;5.382;2022-08-01T09:28:47;4.93;;;4.05;;
43650;SDS011;29247;50.944;5.382;2022-08-01T09:31:16;4.68;;;3.83;;
43650;SDS011;29247;50.944;5.382;2022-08-01T09:36:42;3.35;;;3.05;;
43650;SDS011;29247;50.944;5.382;2022-08-01T09:39:16;4.85;;;3.65;;
43650;SDS011;29247;50.944;5.382;2022-08-01T09:41:44;3.50;;;3.10;;
43650;SDS011;29247;50.944;5.382;2022-08-01T09:44:10;3.28;;;2.97;;
43650;SDS011;29247;50.944;5.382;2022-08-01T09:46:36;4.20;;;3.10;;
43650;SDS011;29247;50.944;5.382;2022-08-01T09:49:14;3.90;;;2.75;;
43650;SDS011;29247;50.944;5.382;2022-08-01T09:51:53;2.97;;;2.65;;
43650;SDS011;29247;50.944;5.382;2022-08-01T09:54:32;2.65;;;2.05;;
43650;SDS011;29247;50.944;5.382;2022-08-01T09:57:09;2.60;;;2.40;;
43650;SDS011;29247;50.944;5.382;2022-08-01T09:59:43;2.15;;;1.92;;
43650;SDS011;29247;50.944;5.382;2022-08-01T10:02:10;3.58;;;1.95;;
43650;SDS011;29247;50.944;5.382;2022-08-01T10:04:53;3.47;;;2.30;;
43650;SDS011;29247;50.944;5.382;2022-08-01T10:07:20;4.78;;;2.72;;
43650;SDS011;29247;50.944;5.382;2022-08-01T10:09:47;2.33;;;2.05;;
43650;SDS011;29247;50.944;5.382;2022-08-01T10:12:15;2.20;;;2.00;;
43650;SDS011;29247;50.944;5.382;2022-08-01T10:14:44;2.90;;;2.40;;
43650;SDS011;29247;50.944;5.382;2022-08-01T10:17:15;2.45;;;2.03;;
43650;SDS011;29247;50.944;5.382;2022-08-01T10:19:43;3.65;;;1.70;;
43650;SDS011;29247;50.944;5.382;2022-08-01T10:22:10;4.10;;;1.90;;
43650;SDS011;29247;50.944;5.382;2022-08-01T10:24:41;3.95;;;2.55;;
43650;SDS011;29247;50.944;5.382;2022-08-01T10:27:10;2.00;;;1.80;;
43650;SDS011;29247;50.944;5.382;2022-08-01T10:32:30;2.50;;;1.60;;
43650;SDS011;29247;50.944;5.382;2022-08-01T10:34:58;5.47;;;1.60;;
43650;SDS011;29247;50.944;5.382;2022-08-01T10:37:25;2.17;;;1.80;;
43650;SDS011;29247;50.944;5.382;2022-08-01T10:39:51;2.65;;;1.83;;
43650;SDS011;29247;50.944;5.382;2022-08-01T10:42:21;1.63;;;1.52;;
43650;SDS011;29247;50.944;5.382;2022-08-01T10:44:47;2.75;;;1.83;;
43650;SDS011;29247;50.944;5.382;2022-08-01T10:47:17;2.63;;;1.80;;
43650;SDS011;29247;50.944;5.382;2022-08-01T10:49:50;1.40;;;1.30;;
43650;SDS011;29247;50.944;5.382;2022-08-01T10:52:20;1.92;;;1.70;;
43650;SDS011;29247;50.944;5.382;2022-08-01T10:54:48;1.73;;;1.63;;
43650;SDS011;29247;50.944;5.382;2022-08-01T10:57:42;2.60;;;1.50;;
43650;SDS011;29247;50.944;5.382;2022-08-01T11:00:19;2.88;;;1.40;;
43650;SDS011;29247;50.944;5.382;2022-08-01T11:03:00;1.42;;;1.25;;
43650;SDS011;29247;50.944;5.382;2022-08-01T11:05:34;1.40;;;1.30;;
43650;SDS011;29247;50.944;5.382;2022-08-01T11:08:03;2.35;;;1.42;;
43650;SDS011;29247;50.944;5.382;2022-08-01T11:10:46;3.08;;;1.30;;
43650;SDS011;29247;50.944;5.382;2022-08-01T11:14:09;3.45;;;1.50;;
43650;SDS011;29247;50.944;5.382;2022-08-01T11:16:37;2.05;;;1.20;;
43650;SDS011;29247;50.944;5.382;2022-08-01T11:19:05;2.13;;;1.30;;
43650;SDS011;29247;50.944;5.382;2022-08-01T11:29:43;3.08;;;1.55;;
43650;SDS011;29247;50.944;5.382;2022-08-01T11:32:29;2.45;;;1.40;;
43650;SDS011;29247;50.944;5.382;2022-08-01T11:34:57;1.40;;;1.15;;
43650;SDS011;29247;50.944;5.382;2022-08-01T11:37:23;1.55;;;1.15;;
43650;SDS011;29247;50.944;5.382;2022-08-01T11:42:44;1.33;;;1.23;;
43650;SDS011;29247;50.944;5.382;2022-08-01T11:45:12;3.40;;;1.67;;
43650;SDS011;29247;50.944;5.382;2022-08-01T11:47:48;1.33;;;1.17;;
43650;SDS011;29247;50.944;5.382;2022-08-01T11:53:05;1.33;;;1.23;;
43650;SDS011;29247;50.944;5.382;2022-08-01T11:55:33;1.25;;;1.10;;
43650;SDS011;29247;50.944;5.382;2022-08-01T11:58:04;1.77;;;1.17;;
43650;SDS011;29247;50.944;5.382;2022-08-01T12:00:32;1.63;;;1.38;;
43650;SDS011;29247;50.944;5.382;2022-08-01T12:03:02;2.15;;;1.63;;
43650;SDS011;29247;50.944;5.382;2022-08-01T12:05:31;1.48;;;1.38;;
43650;SDS011;29247;50.944;5.382;2022-08-01T12:07:59;1.70;;;1.60;;
43650;SDS011;29247;50.944;5.382;2022-08-01T12:10:34;2.75;;;1.42;;
43650;SDS011;29247;50.944;5.382;2022-08-01T12:13:02;2.80;;;1.25;;
43650;SDS011;29247;50.944;5.382;2022-08-01T12:15:35;1.67;;;1.30;;
43650;SDS011;29247;50.944;5.382;2022-08-01T12:18:05;1.38;;;1.27;;
43650;SDS011;29247;50.944;5.382;2022-08-01T12:20:35;1.50;;;1.40;;
43650;SDS011;29247;50.944;5.382;2022-08-01T12:23:03;2.33;;;1.63;;
43650;SDS011;29247;50.944;5.382;2022-08-01T12:25:30;1.73;;;1.40;;
43650;SDS011;29247;50.944;5.382;2022-08-01T12:27:59;1.70;;;1.30;;
43650;SDS011;29247;50.944;5.382;2022-08-01T12:30:29;1.25;;;1.15;;
43650;SDS011;29247;50.944;5.382;2022-08-01T12:33:05;1.70;;;1.30;;
43650;SDS011;29247;50.944;5.382;2022-08-01T12:35:35;2.63;;;1.20;;
43650;SDS011;29247;50.944;5.382;2022-08-01T12:38:06;3.00;;;1.13;;
43650;SDS011;29247;50.944;5.382;2022-08-01T12:40:40;1.23;;;1.02;;
43650;SDS011;29247;50.944;5.382;2022-08-01T12:43:08;1.77;;;1.20;;
43650;SDS011;29247;50.944;5.382;2022-08-01T12:45:41;1.17;;;1.02;;
43650;SDS011;29247;50.944;5.382;2022-08-01T12:48:12;1.33;;;1.10;;
43650;SDS011;29247;50.944;5.382;2022-08-01T12:50:39;1.10;;;1.00;;
43650;SDS011;29247;50.944;5.382;2022-08-01T12:53:07;1.85;;;1.17;;
43650;SDS011;29247;50.944;5.382;2022-08-01T12:55:41;1.65;;;1.15;;
43650;SDS011;29247;50.944;5.382;2022-08-01T12:58:16;3.17;;;1.10;;
43650;SDS011;29247;50.944;5.382;2022-08-01T13:00:44;1.02;;;0.93;;
43650;SDS011;29247;50.944;5.382;2022-08-01T13:03:20;1.13;;;1.00;;
43650;SDS011;29247;50.944;5.382;2022-08-01T13:05:54;1.17;;;1.00;;
43650;SDS011;29247;50.944;5.382;2022-08-01T13:08:22;1.75;;;1.10;;
43650;SDS011;29247;50.944;5.382;2022-08-01T13:10:49;1.73;;;0.90;;
43650;SDS011;29247;50.944;5.382;2022-08-01T13:13:24;0.80;;;0.80;;
43650;SDS011;29247;50.944;5.382;2022-08-01T13:16:03;0.98;;;0.98;;
43650;SDS011;29247;50.944;5.382;2022-08-01T13:18:30;1.75;;;1.27;;
43650;SDS011;29247;50.944;5.382;2022-08-01T13:21:13;1.35;;;1.23;;
43650;SDS011;29247;50.944;5.382;2022-08-01T13:24:05;2.88;;;1.30;;
43650;SDS011;29247;50.944;5.382;2022-08-01T13:29:07;2.45;;;1.20;;
43650;SDS011;29247;50.944;5.382;2022-08-01T13:31:34;2.40;;;1.35;;
43650;SDS011;29247;50.944;5.382;2022-08-01T13:34:00;1.50;;;1.20;;
43650;SDS011;29247;50.944;5.382;2022-08-01T13:36:29;1.23;;;1.13;;
43650;SDS011;29247;50.944;5.382;2022-08-01T13:38:56;2.00;;;1.27;;
43650;SDS011;29247;50.944;5.382;2022-08-01T13:41:44;1.63;;;1.20;;
43650;SDS011;29247;50.944;5.382;2022-08-01T13:44:12;3.03;;;1.50;;
43650;SDS011;29247;50.944;5.382;2022-08-01T13:46:38;3.38;;;1.38;;
43650;SDS011;29247;50.944;5.382;2022-08-01T13:49:06;3.58;;;1.33;;
43650;SDS011;29247;50.944;5.382;2022-08-01T13:51:36;1.98;;;1.30;;
43650;SDS011;29247;50.944;5.382;2022-08-01T13:54:07;1.40;;;1.30;;
43650;SDS011;29247;50.944;5.382;2022-08-01T13:56:33;2.55;;;1.40;;
43650;SDS011;29247;50.944;5.382;2022-08-01T13:58:59;1.30;;;1.20;;
43650;SDS011;29247;50.944;5.382;2022-08-01T14:01:27;1.63;;;1.52;;
43650;SDS011;29247;50.944;5.382;2022-08-01T14:03:57;2.47;;;1.92;;
43650;SDS011;29247;50.944;5.382;2022-08-01T14:06:23;1.67;;;1.42;;
43650;SDS011;29247;50.944;5.382;2022-08-01T14:08:49;1.75;;;1.65;;
43650;SDS011;29247;50.944;5.382;2022-08-01T14:11:18;2.67;;;1.30;;
43650;SDS011;29247;50.944;5.382;2022-08-01T14:13:44;1.70;;;1.60;;
43650;SDS011;29247;50.944;5.382;2022-08-01T14:16:13;2.03;;;1.85;;
43650;SDS011;29247;50.944;5.382;2022-08-01T14:18:41;3.17;;;2.22;;
43650;SDS011;29247;50.944;5.382;2022-08-01T14:21:06;3.72;;;1.45;;
43650;SDS011;29247;50.944;5.382;2022-08-01T14:23:37;4.30;;;1.35;;
43650;SDS011;29247;50.944;5.382;2022-08-01T14:26:06;2.55;;;1.40;;
43650;SDS011;29247;50.944;5.382;2022-08-01T14:28:34;1.38;;;1.27;;
43650;SDS011;29247;50.944;5.382;2022-08-01T14:31:01;2.53;;;1.40;;
43650;SDS011;29247;50.944;5.382;2022-08-01T14:33:32;1.35;;;1.25;;
43650;SDS011;29247;50.944;5.382;2022-08-01T14:35:58;1.30;;;1.20;;
43650;SDS011;29247;50.944;5.382;2022-08-01T14:38:26;3.00;;;1.10;;
43650;SDS011;29247;50.944;5.382;2022-08-01T14:40:54;2.80;;;1.30;;
43650;SDS011;29247;50.944;5.382;2022-08-01T14:43:23;6.27;;;1.83;;
43650;SDS011;29247;50.944;5.382;2022-08-01T14:45:48;1.30;;;1.20;;
43650;SDS011;29247;50.944;5.382;2022-08-01T14:48:19;1.88;;;1.20;;
43650;SDS011;29247;50.944;5.382;2022-08-01T14:50:44;1.40;;;1.30;;
43650;SDS011;29247;50.944;5.382;2022-08-01T14:53:13;1.83;;;1.30;;
43650;SDS011;29247;50.944;5.382;2022-08-01T14:55:38;2.63;;;1.30;;
43650;SDS011;29247;50.944;5.382;2022-08-01T14:58:06;2.95;;;1.20;;
43650;SDS011;29247;50.944;5.382;2022-08-01T15:00:32;1.15;;;1.05;;
43650;SDS011;29247;50.944;5.382;2022-08-01T15:03:00;1.60;;;1.10;;
43650;SDS011;29247;50.944;5.382;2022-08-01T15:05:28;3.05;;;1.17;;
43650;SDS011;29247;50.944;5.382;2022-08-01T15:07:58;2.00;;;1.40;;
43650;SDS011;29247;50.944;5.382;2022-08-01T15:10:26;2.55;;;1.73;;
43650;SDS011;29247;50.944;5.382;2022-08-01T15:12:53;2.10;;;1.20;;
43650;SDS011;29247;50.944;5.382;2022-08-01T15:15:20;2.22;;;1.30;;
43650;SDS011;29247;50.944;5.382;2022-08-01T15:17:46;1.52;;;1.42;;
43650;SDS011;29247;50.944;5.382;2022-08-01T15:20:12;1.50;;;1.40;;
43650;SDS011;29247;50.944;5.382;2022-08-01T15:22:38;1.95;;;1.20;;
43650;SDS011;29247;50.944;5.382;2022-08-01T15:25:03;1.90;;;1.13;;
43650;SDS011;29247;50.944;5.382;2022-08-01T15:27:30;3.25;;;1.73;;
43650;SDS011;29247;50.944;5.382;2022-08-01T15:29:59;3.38;;;1.73;;
43650;SDS011;29247;50.944;5.382;2022-08-01T15:32:27;1.63;;;1.38;;
43650;SDS011;29247;50.944;5.382;2022-08-01T15:34:53;1.85;;;1.40;;
43650;SDS011;29247;50.944;5.382;2022-08-01T15:37:19;1.60;;;1.30;;
43650;SDS011;29247;50.944;5.382;2022-08-01T15:39:46;3.10;;;1.48;;
43650;SDS011;29247;50.944;5.382;2022-08-01T15:42:13;1.52;;;1.42;;